map of BVA home
BVA - Airport
Location
City:  Beauvais, Picardie (Picardy), France
Near (Alt.):Paris
Name:Tillé
ICAO:LFOB
IATA:BVA

Details
Type:Airport (Aerodrome, Airfield)
Use:Public/Civil
Latitude:49°27'16"N (49.454444)
Longitude:2°06'46"E (2.112778)
Elevation:359 ft (109 m)
Variation:0.47°E (WMM2015 magnetic declination)
0.14° annual change
Runways:3
Longest:7972 × 148 ft (2430 × 45 m), paved

Time
Time Zone:UTC+1 (DST+2)
Local Time:

Weather
METAR:LFOB 121000Z AUTO 24010KT 9999 FEW027 BKN040 02/00 Q1010 NOSIG
TAF:LFOB 120500Z 1206/1306 29010KT 9999 SCT030
BECMG 1221/1224 22015KT OVC007
BECMG 1302/1304 20015G25KT 3000 RA

Related Locations
Nearby:
Farthest:CHT: 12034 mi / 19367 km
Waitangi [Tuuta], CIT, NZ

Find:

   beyond  
but within

Other Information
Maps:
NOTAMs:
Links:
Sources:

  
flag of France
flag of Picardie (Picardy)
  

Sectional Chart

Flight Planning
at skyvector.com

Satellite Image

Google Maps Satellite view

 

Copyright © 2004-2017 Karl L. Swartz. All rights reserved.
The Great Circle Mapper name and logo are trademarks of the Great Circle Mapper.
All other trademarks mentioned herein belong to their respective owners.
Please see credits for attibutions and further copyright information.

  Follow gcmap on Facebook Follow gcmap on Twitter Follow gcmap on Google+ GCmap on LinkedIn

hCard Microformat

Geo Microformat